createdAt,value
2022-10-23T00:01:17.138Z,14.00
2022-10-23T00:04:07.164Z,14.00
2022-10-23T00:06:55.602Z,13.90
2022-10-23T00:09:43.672Z,14.00
2022-10-23T00:12:32.303Z,14.00
2022-10-23T00:15:22.990Z,14.00
2022-10-23T00:18:12.342Z,14.00
2022-10-23T00:21:00.442Z,14.00
2022-10-23T00:23:48.572Z,14.00
2022-10-23T00:26:38.233Z,14.00
2022-10-23T00:29:28.102Z,14.10
2022-10-23T00:32:16.140Z,14.10
2022-10-23T00:35:06.575Z,14.10
2022-10-23T00:37:54.582Z,14.10
2022-10-23T00:40:44.830Z,14.10
2022-10-23T00:43:33.297Z,14.10
2022-10-23T00:46:21.321Z,14.00
2022-10-23T00:52:09.477Z,14.00
2022-10-23T00:54:58.048Z,13.90
2022-10-23T00:57:48.918Z,14.00
2022-10-23T01:00:46.378Z,13.90
2022-10-23T01:03:34.404Z,13.80
2022-10-23T01:06:32.773Z,13.80
2022-10-23T01:09:30.396Z,13.70
2022-10-23T01:12:27.117Z,13.70
2022-10-23T01:15:20.629Z,13.70
2022-10-23T01:18:14.051Z,13.70
2022-10-23T01:21:09.181Z,13.70
2022-10-23T01:24:19.500Z,13.60
2022-10-23T01:27:27.256Z,13.70
2022-10-23T01:30:17.799Z,13.60
2022-10-23T01:33:10.838Z,13.60
2022-10-23T01:36:04.059Z,13.70
2022-10-23T01:38:56.784Z,13.70
2022-10-23T01:41:48.397Z,13.70
2022-10-23T01:44:42.800Z,13.70
2022-10-23T01:47:34.925Z,13.70
2022-10-23T01:50:25.941Z,13.80
2022-10-23T01:53:14.061Z,13.80
2022-10-23T01:56:04.872Z,13.90
2022-10-23T01:58:55.569Z,13.80
2022-10-23T02:01:47.758Z,13.80
2022-10-23T02:04:41.709Z,13.90
2022-10-23T02:07:30.557Z,13.80
2022-10-23T02:10:19.996Z,13.80
2022-10-23T02:13:13.057Z,13.80
2022-10-23T02:16:07.045Z,13.80
2022-10-23T02:19:05.452Z,13.80
2022-10-23T02:21:57.877Z,13.80
2022-10-23T02:24:52.148Z,13.80
2022-10-23T02:27:43.693Z,13.80
2022-10-23T02:30:33.083Z,13.80
2022-10-23T02:33:21.626Z,13.70
2022-10-23T02:36:11.144Z,13.70
2022-10-23T02:38:59.500Z,13.60
2022-10-23T02:41:50.113Z,13.60
2022-10-23T02:44:47.568Z,13.60
2022-10-23T02:47:46.665Z,13.60
2022-10-23T02:50:39.339Z,13.50
2022-10-23T02:53:37.202Z,13.40
2022-10-23T02:56:33.493Z,13.40
2022-10-23T02:59:31.281Z,13.30
2022-10-23T03:02:23.118Z,13.30
2022-10-23T03:05:15.173Z,13.30
2022-10-23T03:08:04.679Z,13.30
2022-10-23T03:10:53.981Z,13.20
2022-10-23T03:13:41.954Z,13.20
2022-10-23T03:16:29.969Z,13.20
2022-10-23T03:19:17.983Z,13.10
2022-10-23T03:22:05.981Z,13.00
2022-10-23T03:24:53.940Z,13.00
2022-10-23T03:27:43.258Z,13.00
2022-10-23T03:30:31.216Z,12.90
2022-10-23T03:33:19.583Z,12.80
2022-10-23T03:36:08.386Z,12.90
2022-10-23T03:38:58.042Z,12.90
2022-10-23T03:41:46.016Z,12.80
2022-10-23T03:44:35.410Z,12.80
2022-10-23T03:47:23.401Z,12.70
2022-10-23T03:50:13.446Z,12.40
2022-10-23T03:53:01.568Z,12.70
2022-10-23T03:55:49.522Z,12.70
2022-10-23T03:58:37.626Z,12.80
2022-10-23T04:01:27.179Z,12.60
2022-10-23T04:04:15.702Z,12.60
2022-10-23T04:07:03.733Z,12.40
2022-10-23T04:09:51.726Z,12.40
2022-10-23T04:12:39.902Z,12.20
2022-10-23T04:15:27.984Z,12.40
2022-10-23T04:18:17.400Z,12.50
2022-10-23T04:21:05.462Z,12.30
2022-10-23T04:23:53.465Z,12.30
2022-10-23T04:26:41.453Z,12.30
2022-10-23T04:29:32.343Z,12.30
2022-10-23T04:32:20.327Z,12.00
2022-10-23T04:35:10.398Z,12.10
2022-10-23T04:37:58.374Z,12.20
2022-10-23T04:40:46.361Z,12.20
2022-10-23T04:43:34.535Z,12.20
2022-10-23T04:46:22.609Z,12.10
2022-10-23T04:49:10.592Z,12.20
2022-10-23T04:51:59.896Z,12.10
2022-10-23T04:54:48.242Z,12.10
2022-10-23T04:57:36.212Z,12.10
2022-10-23T05:00:24.617Z,12.00
2022-10-23T05:03:12.785Z,12.00
2022-10-23T05:06:00.936Z,12.10
2022-10-23T05:08:50.274Z,12.00
2022-10-23T05:11:38.273Z,12.00
2022-10-23T05:14:26.354Z,11.80
2022-10-23T05:17:18.512Z,11.90
2022-10-23T05:20:12.615Z,11.80
2022-10-23T05:23:03.257Z,11.90
2022-10-23T05:25:52.616Z,12.00
2022-10-23T05:28:40.623Z,11.90
2022-10-23T05:31:28.796Z,11.90
2022-10-23T05:34:20.552Z,11.90
2022-10-23T05:37:11.695Z,11.80
2022-10-23T05:39:59.706Z,11.70
2022-10-23T05:42:49.251Z,11.70
2022-10-23T05:45:37.241Z,11.80
2022-10-23T05:48:40.596Z,11.80
2022-10-23T05:51:28.589Z,11.80
2022-10-23T05:54:16.618Z,11.80
2022-10-23T05:57:04.751Z,11.70
2022-10-23T05:59:54.064Z,11.80
2022-10-23T06:02:42.194Z,11.70
2022-10-23T06:05:30.241Z,11.70
2022-10-23T06:08:18.608Z,11.70
2022-10-23T06:11:08.493Z,11.70
2022-10-23T06:16:46.822Z,11.70
2022-10-23T06:19:34.780Z,11.70
2022-10-23T06:22:22.950Z,11.70
2022-10-23T06:25:10.946Z,11.40
2022-10-23T06:27:59.110Z,11.70
2022-10-23T06:30:47.072Z,11.70
2022-10-23T06:33:36.423Z,11.80
2022-10-23T06:36:25.054Z,11.80
2022-10-23T06:39:13.012Z,11.80
2022-10-23T06:42:00.959Z,11.80
2022-10-23T06:44:48.920Z,11.90
2022-10-23T06:47:36.884Z,11.80
2022-10-23T06:50:26.499Z,11.90
2022-10-23T06:53:14.653Z,11.90
2022-10-23T06:56:03.526Z,11.90
2022-10-23T06:58:51.586Z,12.00
2022-10-23T07:01:39.891Z,12.00
2022-10-23T07:04:27.947Z,12.10
2022-10-23T07:07:17.309Z,12.20
2022-10-23T07:10:06.444Z,12.20
2022-10-23T07:12:54.456Z,12.20
2022-10-23T07:15:42.509Z,12.30
2022-10-23T07:18:30.912Z,12.30
2022-10-23T07:21:18.909Z,12.40
2022-10-23T07:24:08.749Z,12.20
2022-10-23T07:26:56.810Z,12.50
2022-10-23T07:29:44.778Z,12.50
2022-10-23T07:32:32.771Z,12.50
2022-10-23T07:35:20.732Z,12.70
2022-10-23T07:38:08.842Z,12.70
2022-10-23T07:41:00.118Z,12.70
2022-10-23T07:43:48.201Z,12.70
2022-10-23T07:46:36.257Z,12.80
2022-10-23T07:49:24.215Z,12.90
2022-10-23T07:52:12.185Z,13.00
2022-10-23T07:55:00.154Z,12.90
2022-10-23T07:57:49.459Z,12.90
2022-10-23T08:00:40.591Z,13.10
2022-10-23T08:03:29.774Z,13.00
2022-10-23T08:06:17.838Z,13.00
2022-10-23T08:09:06.825Z,13.00
2022-10-23T08:11:55.172Z,13.10
2022-10-23T08:14:44.470Z,13.10
2022-10-23T08:17:32.466Z,13.10
2022-10-23T08:20:20.561Z,12.90
2022-10-23T08:23:08.614Z,13.20
2022-10-23T08:26:00.148Z,13.20
2022-10-23T08:28:48.126Z,13.30
2022-10-23T08:31:37.441Z,13.20
2022-10-23T08:34:25.877Z,13.40
2022-10-23T08:37:13.893Z,13.50
2022-10-23T08:40:01.897Z,13.50
2022-10-23T08:42:58.716Z,13.70
2022-10-23T08:45:50.714Z,13.60
2022-10-23T08:48:43.308Z,13.60
2022-10-23T08:51:38.768Z,13.70
2022-10-23T08:54:32.517Z,13.80
2022-10-23T08:57:23.793Z,13.90
2022-10-23T09:00:15.920Z,13.90
2022-10-23T09:03:06.265Z,13.90
2022-10-23T09:06:08.809Z,13.90
2022-10-23T09:09:04.211Z,14.00
2022-10-23T09:12:03.530Z,14.00
2022-10-23T09:15:02.937Z,14.10
2022-10-23T09:17:58.432Z,14.20
2022-10-23T09:20:48.290Z,14.30
2022-10-23T09:23:37.972Z,14.50
2022-10-23T09:26:25.933Z,14.50
2022-10-23T09:29:21.813Z,14.60
2022-10-23T09:32:09.776Z,14.70
2022-10-23T09:34:57.745Z,14.80
2022-10-23T09:37:48.456Z,14.80
2022-10-23T09:40:41.837Z,14.90
2022-10-23T09:43:30.282Z,15.00
2022-10-23T09:46:18.297Z,15.00
2022-10-23T09:49:07.436Z,15.10
2022-10-23T09:52:01.797Z,15.20
2022-10-23T09:54:53.770Z,15.30
2022-10-23T09:57:45.553Z,15.30
2022-10-23T10:00:33.835Z,15.60
2022-10-23T10:03:23.591Z,15.50
2022-10-23T10:06:23.112Z,15.60
2022-10-23T10:09:14.801Z,15.70
2022-10-23T10:12:20.442Z,15.80
2022-10-23T10:15:20.814Z,15.90
2022-10-23T10:18:19.755Z,16.00
2022-10-23T10:21:16.554Z,16.10
2022-10-23T10:24:12.676Z,16.20
2022-10-23T10:27:11.249Z,16.30
2022-10-23T10:30:09.443Z,16.40
2022-10-23T10:33:03.177Z,16.50
2022-10-23T10:35:56.085Z,16.50
2022-10-23T10:38:48.801Z,16.60
2022-10-23T10:41:51.039Z,16.70
2022-10-23T10:44:47.852Z,16.80
2022-10-23T10:47:47.714Z,16.80
2022-10-23T10:50:45.520Z,17.00
2022-10-23T10:53:48.364Z,17.10
2022-10-23T10:56:42.495Z,17.20
2022-10-23T10:59:35.450Z,17.30
2022-10-23T11:02:29.315Z,17.40
2022-10-23T11:05:25.921Z,17.40
2022-10-23T11:08:20.609Z,17.50
2022-10-23T11:11:21.732Z,17.50
2022-10-23T11:14:16.376Z,17.60
2022-10-23T11:17:09.954Z,17.60
2022-10-23T11:20:03.598Z,17.60
2022-10-23T11:22:58.518Z,17.60
2022-10-23T11:26:01.228Z,17.60
2022-10-23T11:28:59.924Z,17.60
2022-10-23T11:32:00.306Z,17.60
2022-10-23T11:35:03.932Z,17.60
2022-10-23T11:38:00.517Z,17.60
2022-10-23T11:40:53.778Z,17.60
2022-10-23T11:43:50.037Z,17.70
2022-10-23T11:46:39.358Z,17.60
2022-10-23T11:49:27.361Z,17.70
2022-10-23T11:52:23.974Z,17.70
2022-10-23T11:55:19.346Z,17.70
2022-10-23T11:58:21.072Z,17.80
2022-10-23T12:01:25.458Z,17.90
2022-10-23T12:04:22.197Z,17.90
2022-10-23T12:07:18.466Z,17.90
2022-10-23T12:10:20.087Z,17.90
2022-10-23T12:13:31.728Z,18.00
2022-10-23T12:16:19.753Z,17.90
2022-10-23T12:19:21.420Z,18.00
2022-10-23T12:22:12.170Z,17.90
2022-10-23T12:25:06.604Z,17.90
2022-10-23T12:28:02.044Z,18.00
2022-10-23T12:31:00.789Z,18.00
2022-10-23T12:33:57.287Z,18.00
2022-10-23T12:36:54.514Z,18.00
2022-10-23T12:39:42.841Z,18.10
2022-10-23T12:42:30.969Z,18.10
2022-10-23T12:45:21.581Z,18.10
2022-10-23T12:48:19.827Z,18.10
2022-10-23T12:51:07.856Z,18.20
2022-10-23T12:53:56.215Z,18.10
2022-10-23T12:56:45.220Z,18.10
2022-10-23T12:59:38.745Z,18.10
2022-10-23T13:02:28.849Z,18.10
2022-10-23T13:05:20.874Z,18.10
2022-10-23T13:08:10.670Z,18.10
2022-10-23T13:10:59.198Z,18.20
2022-10-23T13:13:48.574Z,18.20
2022-10-23T13:16:36.606Z,18.20
2022-10-23T13:19:25.961Z,18.20
2022-10-23T13:22:21.034Z,18.30
2022-10-23T13:25:22.831Z,18.40
2022-10-23T13:28:21.626Z,18.40
2022-10-23T13:31:27.513Z,18.50
2022-10-23T13:34:20.288Z,18.50
2022-10-23T13:37:25.673Z,18.50
2022-10-23T13:40:24.207Z,18.50
2022-10-23T13:43:15.752Z,18.50
2022-10-23T13:46:04.025Z,18.40
2022-10-23T13:48:52.559Z,18.40
2022-10-23T13:51:43.339Z,18.50
2022-10-23T13:54:32.724Z,18.40
2022-10-23T13:57:20.680Z,18.40
2022-10-23T14:00:10.557Z,18.40
2022-10-23T14:02:58.543Z,18.40
2022-10-23T14:05:46.652Z,18.30
2022-10-23T14:08:34.689Z,18.30
2022-10-23T14:11:24.210Z,18.30
2022-10-23T14:14:12.446Z,18.30
2022-10-23T14:17:00.404Z,18.40
2022-10-23T14:19:48.423Z,18.40
2022-10-23T14:22:36.704Z,18.40
2022-10-23T14:25:25.064Z,18.40
2022-10-23T14:28:14.386Z,18.40
2022-10-23T14:31:05.541Z,18.30
2022-10-23T14:33:56.013Z,18.40
2022-10-23T14:36:50.092Z,18.40
2022-10-23T14:39:38.605Z,18.30
2022-10-23T14:42:31.708Z,18.40
2022-10-23T14:45:23.026Z,18.20
2022-10-23T14:48:11.068Z,18.30
2022-10-23T14:50:59.074Z,18.10
2022-10-23T14:53:47.406Z,18.10
2022-10-23T14:56:39.401Z,18.10
2022-10-23T14:59:27.481Z,18.00
2022-10-23T15:02:17.909Z,18.00
2022-10-23T15:05:06.850Z,17.90
2022-10-23T15:07:56.133Z,17.90
2022-10-23T15:10:44.113Z,17.80
2022-10-23T15:13:32.330Z,17.90
2022-10-23T15:16:20.279Z,17.60
2022-10-23T15:19:13.515Z,17.60
2022-10-23T15:22:05.333Z,17.50
2022-10-23T15:24:53.386Z,17.40
2022-10-23T15:27:41.606Z,17.30
2022-10-23T15:30:29.797Z,17.20
2022-10-23T15:33:19.919Z,17.10
2022-10-23T15:36:09.551Z,17.10
2022-10-23T15:38:57.592Z,17.00
2022-10-23T15:41:45.737Z,16.90
2022-10-23T15:44:34.418Z,16.90
2022-10-23T15:47:22.398Z,16.80
2022-10-23T15:50:10.768Z,16.80
2022-10-23T15:53:00.133Z,16.80
2022-10-23T15:55:48.114Z,16.70
2022-10-23T15:58:36.124Z,16.70
2022-10-23T16:01:24.199Z,16.60
2022-10-23T16:04:12.316Z,16.60
2022-10-23T16:07:00.329Z,16.60
2022-10-23T16:09:49.661Z,16.60
2022-10-23T16:12:37.621Z,16.60
2022-10-23T16:15:25.620Z,16.50
2022-10-23T16:18:15.976Z,16.50
2022-10-23T16:21:04.076Z,16.40
2022-10-23T16:23:53.479Z,16.50
2022-10-23T16:26:42.786Z,16.40
2022-10-23T16:29:30.814Z,16.40
2022-10-23T16:32:19.144Z,16.40
2022-10-23T16:35:11.015Z,16.30
2022-10-23T16:38:01.017Z,16.30
2022-10-23T16:40:53.609Z,16.30
2022-10-23T16:43:43.011Z,16.30
2022-10-23T16:46:31.222Z,16.30
2022-10-23T16:49:19.216Z,16.20
2022-10-23T16:52:07.211Z,16.30
2022-10-23T16:54:55.330Z,16.20
2022-10-23T16:57:43.498Z,16.20
2022-10-23T17:00:35.161Z,16.20
2022-10-23T17:03:23.324Z,16.20
2022-10-23T17:06:14.046Z,16.20
2022-10-23T17:09:03.403Z,16.20
2022-10-23T17:11:53.487Z,16.10
2022-10-23T17:14:41.528Z,16.20
2022-10-23T17:17:30.826Z,16.20
2022-10-23T17:20:18.905Z,16.10
2022-10-23T17:23:06.976Z,16.10
2022-10-23T17:25:55.200Z,16.10
2022-10-23T17:28:43.465Z,16.00
2022-10-23T17:31:33.392Z,16.00
2022-10-23T17:34:23.941Z,16.00
2022-10-23T17:37:13.246Z,16.10
2022-10-23T17:40:02.446Z,16.10
2022-10-23T17:42:50.562Z,16.10
2022-10-23T17:45:40.333Z,16.00
2022-10-23T17:48:28.648Z,16.00
2022-10-23T17:51:20.228Z,16.00
2022-10-23T17:54:11.568Z,16.00
2022-10-23T17:56:59.525Z,15.90
2022-10-23T17:59:47.492Z,15.90
2022-10-23T18:02:35.510Z,15.90
2022-10-23T18:05:23.566Z,15.90
2022-10-23T18:08:12.846Z,15.80
2022-10-23T18:11:00.909Z,15.80
2022-10-23T18:13:49.736Z,15.80
2022-10-23T18:16:38.894Z,15.80
2022-10-23T18:19:28.175Z,15.70
2022-10-23T18:22:16.195Z,15.70
2022-10-23T18:25:06.496Z,15.70
2022-10-23T18:27:55.681Z,15.70
2022-10-23T18:30:48.009Z,15.70
2022-10-23T18:33:36.255Z,15.70
2022-10-23T18:36:25.899Z,15.60
2022-10-23T18:39:15.656Z,15.60
2022-10-23T18:42:05.155Z,15.60
2022-10-23T18:44:53.159Z,15.60
2022-10-23T18:47:41.333Z,15.50
2022-10-23T18:50:29.654Z,15.50
2022-10-23T18:53:17.659Z,15.50
2022-10-23T18:56:08.377Z,15.50
2022-10-23T18:58:59.822Z,15.50
2022-10-23T19:01:48.534Z,15.40
2022-10-23T19:04:36.668Z,15.50
2022-10-23T19:07:24.679Z,15.40
2022-10-23T19:10:15.936Z,15.40
2022-10-23T19:13:04.076Z,15.40
2022-10-23T19:15:53.467Z,15.40
2022-10-23T19:18:44.202Z,15.40
2022-10-23T19:21:37.737Z,15.30
2022-10-23T19:24:29.893Z,15.30
2022-10-23T19:27:18.343Z,15.30
2022-10-23T19:30:13.468Z,15.30
2022-10-23T19:33:02.846Z,15.30
2022-10-23T19:35:50.834Z,15.10
2022-10-23T19:38:40.290Z,15.30
2022-10-23T19:41:28.431Z,15.20
2022-10-23T19:44:16.495Z,15.20
2022-10-23T19:47:04.481Z,15.20
2022-10-23T19:49:53.836Z,15.10
2022-10-23T19:52:41.825Z,15.10
2022-10-23T19:55:29.833Z,15.10
2022-10-23T19:58:18.776Z,15.10
2022-10-23T20:01:12.191Z,15.10
2022-10-23T20:04:00.365Z,15.10
2022-10-23T20:06:49.697Z,15.10
2022-10-23T20:09:37.792Z,15.00
2022-10-23T20:12:25.786Z,15.10
2022-10-23T20:15:13.776Z,15.00
2022-10-23T20:18:01.747Z,15.00
2022-10-23T20:23:39.499Z,15.00
2022-10-23T20:26:27.910Z,14.90
2022-10-23T20:29:16.568Z,14.90
2022-10-23T20:32:04.684Z,14.90
2022-10-23T20:34:53.009Z,14.90
2022-10-23T20:37:41.024Z,14.70
2022-10-23T20:40:30.322Z,14.70
2022-10-23T20:43:18.310Z,14.70
2022-10-23T20:46:07.608Z,14.70
2022-10-23T20:48:55.625Z,14.60
2022-10-23T20:51:45.778Z,14.60
2022-10-23T20:54:35.411Z,14.60
2022-10-23T20:57:24.703Z,14.60
2022-10-23T21:00:13.261Z,14.40
2022-10-23T21:03:03.996Z,14.40
2022-10-23T21:05:51.934Z,14.40
2022-10-23T21:08:40.908Z,14.40
2022-10-23T21:11:29.563Z,14.40
2022-10-23T21:14:18.843Z,14.40
2022-10-23T21:17:08.483Z,14.30
2022-10-23T21:19:56.436Z,14.30
2022-10-23T21:22:44.984Z,14.30
2022-10-23T21:25:33.197Z,14.40
2022-10-23T21:28:21.213Z,14.40
2022-10-23T21:31:12.952Z,13.30
2022-10-23T21:34:01.159Z,14.40
2022-10-23T21:37:11.295Z,14.50
2022-10-23T21:39:57.281Z,14.40
2022-10-23T21:42:45.296Z,14.50
2022-10-23T21:45:33.291Z,14.30
2022-10-23T21:48:22.636Z,14.50
2022-10-23T21:51:17.265Z,14.50
2022-10-23T21:54:06.923Z,14.40
2022-10-23T21:56:54.937Z,14.40
2022-10-23T21:59:42.948Z,14.40
2022-10-23T22:02:31.015Z,14.50
2022-10-23T22:05:20.375Z,14.50
2022-10-23T22:08:08.391Z,14.50
2022-10-23T22:10:56.379Z,14.60
2022-10-23T22:13:45.614Z,14.60
2022-10-23T22:16:33.709Z,14.60
2022-10-23T22:19:23.341Z,14.60
2022-10-23T22:22:12.677Z,14.60
2022-10-23T22:25:01.417Z,14.60
2022-10-23T22:27:49.425Z,14.60
2022-10-23T22:30:37.909Z,14.60
2022-10-23T22:33:25.911Z,14.50
2022-10-23T22:36:14.599Z,14.50
2022-10-23T22:39:04.581Z,14.50
2022-10-23T22:41:52.641Z,14.50
2022-10-23T22:44:40.667Z,14.50
2022-10-23T22:47:30.209Z,14.50
2022-10-23T22:50:18.319Z,14.40
2022-10-23T22:53:06.306Z,14.40
2022-10-23T22:55:56.450Z,14.40
2022-10-23T22:58:44.737Z,14.30
2022-10-23T23:01:35.127Z,14.10
2022-10-23T23:04:37.275Z,14.10
2022-10-23T23:07:26.085Z,14.10
2022-10-23T23:10:14.065Z,14.00
2022-10-23T23:13:03.502Z,14.00
2022-10-23T23:15:51.541Z,14.00
2022-10-23T23:18:39.563Z,14.10
2022-10-23T23:21:28.437Z,14.00
2022-10-23T23:24:16.456Z,14.00
2022-10-23T23:27:04.578Z,14.00
2022-10-23T23:29:57.086Z,14.00
2022-10-23T23:32:48.189Z,14.00
2022-10-23T23:35:39.691Z,14.00
2022-10-23T23:38:28.373Z,13.90
2022-10-23T23:41:18.675Z,13.80
2022-10-23T23:44:08.341Z,14.00
2022-10-23T23:46:57.863Z,14.00
2022-10-23T23:49:45.852Z,14.10
2022-10-23T23:52:33.981Z,13.90
2022-10-23T23:55:22.081Z,13.80
2022-10-23T23:58:12.030Z,14.00
